sensor_id;sensor_type;location;lat;lon;timestamp;temperature;humidity
64549;DHT22;49838;51.798;10.954;2023-09-18T00:00:46;26.30;32.40
64549;DHT22;49838;51.798;10.954;2023-09-18T00:03:15;26.30;32.50
64549;DHT22;49838;51.798;10.954;2023-09-18T00:05:45;26.40;32.90
64549;DHT22;49838;51.798;10.954;2023-09-18T00:08:13;26.40;32.90
64549;DHT22;49838;51.798;10.954;2023-09-18T00:10:41;26.40;32.90
64549;DHT22;49838;51.798;10.954;2023-09-18T00:13:09;26.50;32.90
64549;DHT22;49838;51.798;10.954;2023-09-18T00:15:37;26.50;33.00
64549;DHT22;49838;51.798;10.954;2023-09-18T00:18:04;26.50;33.10
64549;DHT22;49838;51.798;10.954;2023-09-18T00:20:31;26.50;32.90
64549;DHT22;49838;51.798;10.954;2023-09-18T00:23:00;26.60;33.10
64549;DHT22;49838;51.798;10.954;2023-09-18T00:25:28;26.60;33.20
64549;DHT22;49838;51.798;10.954;2023-09-18T00:27:57;26.60;33.10
64549;DHT22;49838;51.798;10.954;2023-09-18T00:30:24;26.60;33.10
64549;DHT22;49838;51.798;10.954;2023-09-18T00:32:52;26.70;33.10
64549;DHT22;49838;51.798;10.954;2023-09-18T00:35:19;26.70;33.10
64549;DHT22;49838;51.798;10.954;2023-09-18T00:37:48;26.70;33.10
64549;DHT22;49838;51.798;10.954;2023-09-18T00:40:17;26.70;33.00
64549;DHT22;49838;51.798;10.954;2023-09-18T00:42:45;26.70;33.00
64549;DHT22;49838;51.798;10.954;2023-09-18T00:45:13;26.70;33.00
64549;DHT22;49838;51.798;10.954;2023-09-18T00:47:41;26.70;32.90
64549;DHT22;49838;51.798;10.954;2023-09-18T00:50:09;26.70;32.90
64549;DHT22;49838;51.798;10.954;2023-09-18T00:52:39;26.70;32.90
64549;DHT22;49838;51.798;10.954;2023-09-18T00:55:07;26.70;32.90
64549;DHT22;49838;51.798;10.954;2023-09-18T00:57:37;26.70;32.80
64549;DHT22;49838;51.798;10.954;2023-09-18T01:00:05;26.60;32.70
64549;DHT22;49838;51.798;10.954;2023-09-18T01:02:33;26.60;32.70
64549;DHT22;49838;51.798;10.954;2023-09-18T01:05:13;26.60;32.70
64549;DHT22;49838;51.798;10.954;2023-09-18T01:08:15;26.60;32.70
64549;DHT22;49838;51.798;10.954;2023-09-18T01:11:19;26.50;32.80
64549;DHT22;49838;51.798;10.954;2023-09-18T15:13:24;29.90;37.20
64549;DHT22;49838;51.798;10.954;2023-09-18T15:15:51;29.90;37.20
64549;DHT22;49838;51.798;10.954;2023-09-18T15:18:18;29.90;37.20
64549;DHT22;49838;51.798;10.954;2023-09-18T15:20:46;30.00;37.10
64549;DHT22;49838;51.798;10.954;2023-09-18T15:23:13;30.10;37.10
64549;DHT22;49838;51.798;10.954;2023-09-18T15:25:41;30.10;37.00
64549;DHT22;49838;51.798;10.954;2023-09-18T15:28:09;30.20;37.10
64549;DHT22;49838;51.798;10.954;2023-09-18T15:30:38;30.10;37.00
64549;DHT22;49838;51.798;10.954;2023-09-18T15:33:05;30.10;37.10
64549;DHT22;49838;51.798;10.954;2023-09-18T15:35:35;30.10;37.10
64549;DHT22;49838;51.798;10.954;2023-09-18T15:38:03;30.00;37.20
64549;DHT22;49838;51.798;10.954;2023-09-18T15:40:32;29.90;37.40
64549;DHT22;49838;51.798;10.954;2023-09-18T15:43:00;29.80;37.30
64549;DHT22;49838;51.798;10.954;2023-09-18T15:45:28;29.70;37.60
64549;DHT22;49838;51.798;10.954;2023-09-18T15:47:57;29.70;37.60
64549;DHT22;49838;51.798;10.954;2023-09-18T15:50:24;29.60;37.50
64549;DHT22;49838;51.798;10.954;2023-09-18T15:52:51;29.60;37.50
64549;DHT22;49838;51.798;10.954;2023-09-18T15:55:19;29.50;37.50
64549;DHT22;49838;51.798;10.954;2023-09-18T15:57:49;29.40;37.80
64549;DHT22;49838;51.798;10.954;2023-09-18T16:00:18;29.40;37.70
64549;DHT22;49838;51.798;10.954;2023-09-18T16:02:46;29.30;37.60
64549;DHT22;49838;51.798;10.954;2023-09-18T16:05:16;29.30;37.50
64549;DHT22;49838;51.798;10.954;2023-09-18T16:07:45;29.20;37.40
64549;DHT22;49838;51.798;10.954;2023-09-18T16:10:13;29.20;37.30
64549;DHT22;49838;51.798;10.954;2023-09-18T16:12:41;29.20;37.30
64549;DHT22;49838;51.798;10.954;2023-09-18T16:15:08;29.20;37.30
64549;DHT22;49838;51.798;10.954;2023-09-18T16:17:40;29.10;37.30
64549;DHT22;49838;51.798;10.954;2023-09-18T16:20:07;29.00;37.90
64549;DHT22;49838;51.798;10.954;2023-09-18T16:22:37;29.00;37.40
64549;DHT22;49838;51.798;10.954;2023-09-18T16:25:06;28.80;37.50
64549;DHT22;49838;51.798;10.954;2023-09-18T16:27:34;28.70;37.60
64549;DHT22;49838;51.798;10.954;2023-09-18T16:30:01;28.70;37.70
64549;DHT22;49838;51.798;10.954;2023-09-18T16:32:30;28.60;37.60
64549;DHT22;49838;51.798;10.954;2023-09-18T16:34:58;28.60;37.50
64549;DHT22;49838;51.798;10.954;2023-09-18T16:37:26;28.50;37.40
64549;DHT22;49838;51.798;10.954;2023-09-18T16:39:55;28.50;37.50
64549;DHT22;49838;51.798;10.954;2023-09-18T16:42:22;28.40;37.50
64549;DHT22;49838;51.798;10.954;2023-09-18T16:44:52;28.30;37.50
64549;DHT22;49838;51.798;10.954;2023-09-18T16:47:22;28.30;37.60
64549;DHT22;49838;51.798;10.954;2023-09-18T16:49:50;28.30;37.50
64549;DHT22;49838;51.798;10.954;2023-09-18T16:52:18;28.30;37.40
64549;DHT22;49838;51.798;10.954;2023-09-18T16:54:46;28.30;37.30
64549;DHT22;49838;51.798;10.954;2023-09-18T16:57:14;28.20;37.40
64549;DHT22;49838;51.798;10.954;2023-09-18T16:59:44;28.10;37.50
64549;DHT22;49838;51.798;10.954;2023-09-18T17:02:13;28.10;37.50
64549;DHT22;49838;51.798;10.954;2023-09-18T17:04:41;28.00;37.50
64549;DHT22;49838;51.798;10.954;2023-09-18T17:07:08;28.00;37.40
64549;DHT22;49838;51.798;10.954;2023-09-18T17:09:36;28.00;37.40
64549;DHT22;49838;51.798;10.954;2023-09-18T17:12:03;28.00;37.40
64549;DHT22;49838;51.798;10.954;2023-09-18T17:14:33;27.90;37.70
64549;DHT22;49838;51.798;10.954;2023-09-18T17:17:02;27.70;37.70
64549;DHT22;49838;51.798;10.954;2023-09-18T17:19:29;27.70;38.00
64549;DHT22;49838;51.798;10.954;2023-09-18T17:21:57;27.60;38.00
64549;DHT22;49838;51.798;10.954;2023-09-18T17:24:29;27.50;38.00
64549;DHT22;49838;51.798;10.954;2023-09-18T17:26:58;27.50;38.00
64549;DHT22;49838;51.798;10.954;2023-09-18T17:29:26;27.40;37.90
64549;DHT22;49838;51.798;10.954;2023-09-18T17:31:56;27.40;38.00
64549;DHT22;49838;51.798;10.954;2023-09-18T17:34:23;27.30;38.20
64549;DHT22;49838;51.798;10.954;2023-09-18T17:36:53;27.20;38.10
64549;DHT22;49838;51.798;10.954;2023-09-18T17:39:21;27.10;38.30
64549;DHT22;49838;51.798;10.954;2023-09-18T17:41:50;27.10;38.30
64549;DHT22;49838;51.798;10.954;2023-09-18T17:44:17;27.00;38.50
64549;DHT22;49838;51.798;10.954;2023-09-18T17:46:47;26.90;38.40
64549;DHT22;49838;51.798;10.954;2023-09-18T17:49:16;26.90;38.60
64549;DHT22;49838;51.798;10.954;2023-09-18T17:51:43;26.80;38.60
64549;DHT22;49838;51.798;10.954;2023-09-18T17:54:11;26.80;38.60
64549;DHT22;49838;51.798;10.954;2023-09-18T17:56:38;26.70;38.60
64549;DHT22;49838;51.798;10.954;2023-09-18T17:59:08;26.70;38.80
64549;DHT22;49838;51.798;10.954;2023-09-18T18:01:40;26.60;39.10
64549;DHT22;49838;51.798;10.954;2023-09-18T18:04:09;26.50;39.20
64549;DHT22;49838;51.798;10.954;2023-09-18T18:06:37;26.50;39.40
64549;DHT22;49838;51.798;10.954;2023-09-18T18:09:05;26.50;39.30
64549;DHT22;49838;51.798;10.954;2023-09-18T18:11:32;26.40;39.50
64549;DHT22;49838;51.798;10.954;2023-09-18T18:14:01;26.30;39.60
64549;DHT22;49838;51.798;10.954;2023-09-18T18:16:30;26.30;39.60
64549;DHT22;49838;51.798;10.954;2023-09-18T18:18:57;26.20;39.50
64549;DHT22;49838;51.798;10.954;2023-09-18T18:21:25;26.20;39.80
64549;DHT22;49838;51.798;10.954;2023-09-18T18:23:54;26.10;39.80
64549;DHT22;49838;51.798;10.954;2023-09-18T18:26:21;26.10;39.70
64549;DHT22;49838;51.798;10.954;2023-09-18T18:28:53;26.00;39.80
64549;DHT22;49838;51.798;10.954;2023-09-18T18:31:22;26.00;40.00
64549;DHT22;49838;51.798;10.954;2023-09-18T18:33:49;26.00;39.90
64549;DHT22;49838;51.798;10.954;2023-09-18T18:36:20;26.00;39.70
64549;DHT22;49838;51.798;10.954;2023-09-18T18:38:47;25.90;39.80
64549;DHT22;49838;51.798;10.954;2023-09-18T18:41:19;25.90;39.90
64549;DHT22;49838;51.798;10.954;2023-09-18T18:43:46;25.90;40.00
64549;DHT22;49838;51.798;10.954;2023-09-18T18:46:13;25.80;39.90
64549;DHT22;49838;51.798;10.954;2023-09-18T18:48:41;25.80;40.00
64549;DHT22;49838;51.798;10.954;2023-09-18T18:51:11;25.80;39.90
64549;DHT22;49838;51.798;10.954;2023-09-18T18:53:43;25.70;40.00
64549;DHT22;49838;51.798;10.954;2023-09-18T18:56:11;25.70;40.10
64549;DHT22;49838;51.798;10.954;2023-09-18T18:58:42;25.70;40.20
64549;DHT22;49838;51.798;10.954;2023-09-18T19:01:13;25.70;40.30
64549;DHT22;49838;51.798;10.954;2023-09-18T19:03:44;25.60;40.30
64549;DHT22;49838;51.798;10.954;2023-09-18T19:06:13;25.60;40.50
64549;DHT22;49838;51.798;10.954;2023-09-18T19:08:41;25.60;40.50
64549;DHT22;49838;51.798;10.954;2023-09-18T19:11:10;25.50;40.60
64549;DHT22;49838;51.798;10.954;2023-09-18T19:13:39;25.60;40.80
64549;DHT22;49838;51.798;10.954;2023-09-18T19:16:10;25.50;40.80
64549;DHT22;49838;51.798;10.954;2023-09-18T19:18:38;25.50;40.70
64549;DHT22;49838;51.798;10.954;2023-09-18T19:21:05;25.40;40.60
64549;DHT22;49838;51.798;10.954;2023-09-18T19:23:35;25.40;40.50
64549;DHT22;49838;51.798;10.954;2023-09-18T19:26:03;25.40;40.40
64549;DHT22;49838;51.798;10.954;2023-09-18T19:28:33;25.40;40.50
64549;DHT22;49838;51.798;10.954;2023-09-18T19:31:01;25.30;40.40
64549;DHT22;49838;51.798;10.954;2023-09-18T19:33:33;25.40;40.50
64549;DHT22;49838;51.798;10.954;2023-09-18T19:36:04;25.30;40.70
64549;DHT22;49838;51.798;10.954;2023-09-18T19:38:35;25.30;40.70
64549;DHT22;49838;51.798;10.954;2023-09-18T19:41:03;25.30;40.70
64549;DHT22;49838;51.798;10.954;2023-09-18T19:43:30;25.30;41.00
64549;DHT22;49838;51.798;10.954;2023-09-18T19:45:58;25.30;40.80
64549;DHT22;49838;51.798;10.954;2023-09-18T19:48:25;25.20;40.70
64549;DHT22;49838;51.798;10.954;2023-09-18T19:50:56;25.20;41.50
64549;DHT22;49838;51.798;10.954;2023-09-18T19:53:26;25.20;41.00
64549;DHT22;49838;51.798;10.954;2023-09-18T19:55:55;25.20;41.20
64549;DHT22;49838;51.798;10.954;2023-09-18T19:58:22;25.20;41.10
64549;DHT22;49838;51.798;10.954;2023-09-18T20:00:51;25.10;41.10
64549;DHT22;49838;51.798;10.954;2023-09-18T20:03:18;25.10;41.20
64549;DHT22;49838;51.798;10.954;2023-09-18T20:05:46;25.10;41.30
64549;DHT22;49838;51.798;10.954;2023-09-18T20:08:15;25.00;41.30
64549;DHT22;49838;51.798;10.954;2023-09-18T20:10:43;25.00;41.40
64549;DHT22;49838;51.798;10.954;2023-09-18T20:13:10;25.00;41.60
64549;DHT22;49838;51.798;10.954;2023-09-18T20:15:38;25.00;41.70
64549;DHT22;49838;51.798;10.954;2023-09-18T20:18:05;24.90;41.70
64549;DHT22;49838;51.798;10.954;2023-09-18T20:20:33;24.90;41.70
64549;DHT22;49838;51.798;10.954;2023-09-18T20:23:00;24.90;41.60
64549;DHT22;49838;51.798;10.954;2023-09-18T20:25:30;24.90;41.80
64549;DHT22;49838;51.798;10.954;2023-09-18T20:27:58;24.90;42.00
64549;DHT22;49838;51.798;10.954;2023-09-18T20:30:25;24.80;42.10
64549;DHT22;49838;51.798;10.954;2023-09-18T20:32:52;24.80;42.00
64549;DHT22;49838;51.798;10.954;2023-09-18T20:35:20;24.80;42.10
64549;DHT22;49838;51.798;10.954;2023-09-18T20:37:47;24.80;42.20
64549;DHT22;49838;51.798;10.954;2023-09-18T20:40:14;24.80;42.00
64549;DHT22;49838;51.798;10.954;2023-09-18T20:42:43;24.80;41.90
64549;DHT22;49838;51.798;10.954;2023-09-18T20:45:10;24.70;41.90
64549;DHT22;49838;51.798;10.954;2023-09-18T20:47:39;24.70;41.90
64549;DHT22;49838;51.798;10.954;2023-09-18T20:50:07;24.70;42.00
64549;DHT22;49838;51.798;10.954;2023-09-18T20:52:37;24.70;42.20
64549;DHT22;49838;51.798;10.954;2023-09-18T20:55:05;24.70;42.40
64549;DHT22;49838;51.798;10.954;2023-09-18T20:57:33;24.70;42.30
64549;DHT22;49838;51.798;10.954;2023-09-18T21:00:02;24.70;42.40
64549;DHT22;49838;51.798;10.954;2023-09-18T21:02:30;24.70;42.50
64549;DHT22;49838;51.798;10.954;2023-09-18T21:04:58;24.70;42.20
64549;DHT22;49838;51.798;10.954;2023-09-18T21:07:25;24.80;42.20
64549;DHT22;49838;51.798;10.954;2023-09-18T21:09:54;24.70;42.10
64549;DHT22;49838;51.798;10.954;2023-09-18T21:12:22;24.80;41.90
64549;DHT22;49838;51.798;10.954;2023-09-18T21:14:51;24.80;41.80
64549;DHT22;49838;51.798;10.954;2023-09-18T21:17:20;24.80;41.70
64549;DHT22;49838;51.798;10.954;2023-09-18T21:19:47;24.80;41.50
64549;DHT22;49838;51.798;10.954;2023-09-18T21:22:15;24.80;41.60
64549;DHT22;49838;51.798;10.954;2023-09-18T21:24:42;24.80;41.40
64549;DHT22;49838;51.798;10.954;2023-09-18T21:27:13;24.70;41.40
64549;DHT22;49838;51.798;10.954;2023-09-18T21:29:40;24.80;41.40
64549;DHT22;49838;51.798;10.954;2023-09-18T21:32:08;24.70;41.20
64549;DHT22;49838;51.798;10.954;2023-09-18T21:34:37;24.80;41.20
64549;DHT22;49838;51.798;10.954;2023-09-18T21:37:04;24.80;41.10
64549;DHT22;49838;51.798;10.954;2023-09-18T21:39:31;24.80;40.80
64549;DHT22;49838;51.798;10.954;2023-09-18T21:41:59;24.80;40.90
64549;DHT22;49838;51.798;10.954;2023-09-18T21:44:26;24.80;40.80
64549;DHT22;49838;51.798;10.954;2023-09-18T21:46:54;24.80;40.70
64549;DHT22;49838;51.798;10.954;2023-09-18T21:49:21;24.80;40.70
64549;DHT22;49838;51.798;10.954;2023-09-18T21:51:50;24.80;40.60
64549;DHT22;49838;51.798;10.954;2023-09-18T21:54:17;24.80;40.60
64549;DHT22;49838;51.798;10.954;2023-09-18T21:56:44;24.80;40.40
64549;DHT22;49838;51.798;10.954;2023-09-18T21:59:12;24.90;40.40
64549;DHT22;49838;51.798;10.954;2023-09-18T22:01:39;24.90;40.50
64549;DHT22;49838;51.798;10.954;2023-09-18T22:04:08;24.80;40.50
64549;DHT22;49838;51.798;10.954;2023-09-18T22:06:36;24.80;40.50
64549;DHT22;49838;51.798;10.954;2023-09-18T22:09:04;24.80;40.40
64549;DHT22;49838;51.798;10.954;2023-09-18T22:11:32;24.80;40.40
64549;DHT22;49838;51.798;10.954;2023-09-18T22:13:59;24.90;40.40
64549;DHT22;49838;51.798;10.954;2023-09-18T22:16:27;24.80;40.30
64549;DHT22;49838;51.798;10.954;2023-09-18T22:18:54;24.80;40.40
64549;DHT22;49838;51.798;10.954;2023-09-18T22:21:21;24.80;40.40
64549;DHT22;49838;51.798;10.954;2023-09-18T22:23:49;24.80;40.40
64549;DHT22;49838;51.798;10.954;2023-09-18T22:26:19;24.80;40.50
64549;DHT22;49838;51.798;10.954;2023-09-18T22:28:46;24.70;40.60
64549;DHT22;49838;51.798;10.954;2023-09-18T22:31:13;24.70;40.50
64549;DHT22;49838;51.798;10.954;2023-09-18T22:33:44;24.70;40.60
64549;DHT22;49838;51.798;10.954;2023-09-18T22:36:12;24.60;40.60
64549;DHT22;49838;51.798;10.954;2023-09-18T22:38:42;24.60;40.60
64549;DHT22;49838;51.798;10.954;2023-09-18T22:55:34;24.60;40.40
64549;DHT22;49838;51.798;10.954;2023-09-18T22:58:06;24.60;40.40
64549;DHT22;49838;51.798;10.954;2023-09-18T23:00:35;24.60;40.30
64549;DHT22;49838;51.798;10.954;2023-09-18T23:03:03;24.60;40.40
64549;DHT22;49838;51.798;10.954;2023-09-18T23:05:33;24.60;40.30
64549;DHT22;49838;51.798;10.954;2023-09-18T23:08:03;24.70;40.50
64549;DHT22;49838;51.798;10.954;2023-09-18T23:10:36;24.70;41.20
64549;DHT22;49838;51.798;10.954;2023-09-18T23:13:04;24.70;41.20
64549;DHT22;49838;51.798;10.954;2023-09-18T23:15:32;24.70;41.20
64549;DHT22;49838;51.798;10.954;2023-09-18T23:18:02;24.60;41.10
64549;DHT22;49838;51.798;10.954;2023-09-18T23:20:36;24.70;41.30
64549;DHT22;49838;51.798;10.954;2023-09-18T23:23:05;24.70;41.30
64549;DHT22;49838;51.798;10.954;2023-09-18T23:25:35;24.70;41.30
64549;DHT22;49838;51.798;10.954;2023-09-18T23:28:07;24.70;41.20
64549;DHT22;49838;51.798;10.954;2023-09-18T23:30:34;24.70;41.60
64549;DHT22;49838;51.798;10.954;2023-09-18T23:33:03;24.70;41.10
64549;DHT22;49838;51.798;10.954;2023-09-18T23:35:36;24.60;41.00
64549;DHT22;49838;51.798;10.954;2023-09-18T23:38:04;24.60;41.10
64549;DHT22;49838;51.798;10.954;2023-09-18T23:40:34;24.50;41.00
64549;DHT22;49838;51.798;10.954;2023-09-18T23:43:05;24.40;40.90
64549;DHT22;49838;51.798;10.954;2023-09-18T23:45:34;24.40;40.90
64549;DHT22;49838;51.798;10.954;2023-09-18T23:48:07;24.40;40.70
64549;DHT22;49838;51.798;10.954;2023-09-18T23:50:39;24.30;40.70
64549;DHT22;49838;51.798;10.954;2023-09-18T23:53:07;24.20;40.70
64549;DHT22;49838;51.798;10.954;2023-09-18T23:55:37;24.20;40.60
64549;DHT22;49838;51.798;10.954;2023-09-18T23:58:06;24.20;40.80
